sensor_id;sensor_type;location;lat;lon;timestamp;temperature;humidity
19088;DHT22;9676;50.916;13.352;2023-02-28T00:02:40;2.60;99.90
19088;DHT22;9676;50.916;13.352;2023-02-28T00:05:30;2.60;99.90
19088;DHT22;9676;50.916;13.352;2023-02-28T00:08:20;2.60;99.90
19088;DHT22;9676;50.916;13.352;2023-02-28T00:11:11;2.60;99.90
19088;DHT22;9676;50.916;13.352;2023-02-28T00:14:02;2.60;99.90
19088;DHT22;9676;50.916;13.352;2023-02-28T00:16:52;2.70;99.90
19088;DHT22;9676;50.916;13.352;2023-02-28T00:19:41;2.70;99.90
19088;DHT22;9676;50.916;13.352;2023-02-28T00:22:31;2.60;99.90
19088;DHT22;9676;50.916;13.352;2023-02-28T00:25:22;2.70;99.90
19088;DHT22;9676;50.916;13.352;2023-02-28T00:28:12;2.70;99.90
19088;DHT22;9676;50.916;13.352;2023-02-28T00:31:03;2.70;99.90
19088;DHT22;9676;50.916;13.352;2023-02-28T00:33:53;2.70;99.90
19088;DHT22;9676;50.916;13.352;2023-02-28T00:36:42;2.70;99.90
19088;DHT22;9676;50.916;13.352;2023-02-28T00:39:35;2.70;99.90
19088;DHT22;9676;50.916;13.352;2023-02-28T00:42:25;2.70;99.90
19088;DHT22;9676;50.916;13.352;2023-02-28T00:45:14;2.70;99.90
19088;DHT22;9676;50.916;13.352;2023-02-28T00:48:05;2.70;99.90
19088;DHT22;9676;50.916;13.352;2023-02-28T00:50:55;2.70;99.90
19088;DHT22;9676;50.916;13.352;2023-02-28T00:53:45;2.70;99.90
19088;DHT22;9676;50.916;13.352;2023-02-28T00:56:37;2.70;99.90
19088;DHT22;9676;50.916;13.352;2023-02-28T00:59:26;2.70;99.90
19088;DHT22;9676;50.916;13.352;2023-02-28T01:02:16;2.80;99.90
19088;DHT22;9676;50.916;13.352;2023-02-28T01:05:09;2.80;99.90
19088;DHT22;9676;50.916;13.352;2023-02-28T01:07:59;2.80;99.90
19088;DHT22;9676;50.916;13.352;2023-02-28T01:10:48;2.80;99.90
19088;DHT22;9676;50.916;13.352;2023-02-28T01:13:38;2.90;99.90
19088;DHT22;9676;50.916;13.352;2023-02-28T01:16:27;2.90;99.90
19088;DHT22;9676;50.916;13.352;2023-02-28T01:19:17;2.90;99.90
19088;DHT22;9676;50.916;13.352;2023-02-28T01:22:08;3.00;99.90
19088;DHT22;9676;50.916;13.352;2023-02-28T01:24:57;2.90;99.90
19088;DHT22;9676;50.916;13.352;2023-02-28T01:27:47;2.90;99.90
19088;DHT22;9676;50.916;13.352;2023-02-28T01:30:36;2.90;99.90
19088;DHT22;9676;50.916;13.352;2023-02-28T01:33:26;2.90;99.90
19088;DHT22;9676;50.916;13.352;2023-02-28T01:36:17;2.90;99.90
19088;DHT22;9676;50.916;13.352;2023-02-28T01:39:09;3.00;99.90
19088;DHT22;9676;50.916;13.352;2023-02-28T01:41:58;2.90;99.90
19088;DHT22;9676;50.916;13.352;2023-02-28T01:45:04;2.90;99.90
19088;DHT22;9676;50.916;13.352;2023-02-28T01:48:06;2.80;99.90
19088;DHT22;9676;50.916;13.352;2023-02-28T01:50:58;2.80;99.90
19088;DHT22;9676;50.916;13.352;2023-02-28T01:53:54;2.80;99.90
19088;DHT22;9676;50.916;13.352;2023-02-28T01:56:49;2.70;99.90
19088;DHT22;9676;50.916;13.352;2023-02-28T01:59:43;2.70;99.90
19088;DHT22;9676;50.916;13.352;2023-02-28T02:02:37;2.60;99.90
19088;DHT22;9676;50.916;13.352;2023-02-28T02:05:29;2.60;99.90
19088;DHT22;9676;50.916;13.352;2023-02-28T02:08:21;2.60;99.90
19088;DHT22;9676;50.916;13.352;2023-02-28T02:11:14;2.60;99.90
19088;DHT22;9676;50.916;13.352;2023-02-28T02:14:21;2.50;99.90
19088;DHT22;9676;50.916;13.352;2023-02-28T02:17:25;2.50;99.90
19088;DHT22;9676;50.916;13.352;2023-02-28T02:20:58;2.50;99.90
19088;DHT22;9676;50.916;13.352;2023-02-28T02:24:33;2.50;99.90
19088;DHT22;9676;50.916;13.352;2023-02-28T02:28:10;2.50;99.90
19088;DHT22;9676;50.916;13.352;2023-02-28T02:34:56;2.40;99.90
19088;DHT22;9676;50.916;13.352;2023-02-28T02:37:52;2.40;99.90
19088;DHT22;9676;50.916;13.352;2023-02-28T02:40:51;2.50;99.90
19088;DHT22;9676;50.916;13.352;2023-02-28T02:43:49;2.40;99.90
19088;DHT22;9676;50.916;13.352;2023-02-28T02:46:43;2.40;99.90
19088;DHT22;9676;50.916;13.352;2023-02-28T02:49:35;2.40;99.90
19088;DHT22;9676;50.916;13.352;2023-02-28T02:52:31;2.50;99.90
19088;DHT22;9676;50.916;13.352;2023-02-28T02:55:25;2.50;99.90
19088;DHT22;9676;50.916;13.352;2023-02-28T02:58:16;2.50;99.90
19088;DHT22;9676;50.916;13.352;2023-02-28T03:01:10;2.50;99.90
19088;DHT22;9676;50.916;13.352;2023-02-28T03:04:05;2.50;99.90
19088;DHT22;9676;50.916;13.352;2023-02-28T03:06:58;2.40;99.90
19088;DHT22;9676;50.916;13.352;2023-02-28T03:09:53;2.50;99.90
19088;DHT22;9676;50.916;13.352;2023-02-28T03:13:03;2.40;99.90
19088;DHT22;9676;50.916;13.352;2023-02-28T03:16:33;2.50;99.90
19088;DHT22;9676;50.916;13.352;2023-02-28T03:19:38;2.40;99.90
19088;DHT22;9676;50.916;13.352;2023-02-28T03:22:45;2.40;99.90
19088;DHT22;9676;50.916;13.352;2023-02-28T03:25:51;2.40;99.90
19088;DHT22;9676;50.916;13.352;2023-02-28T03:28:51;2.40;99.90
19088;DHT22;9676;50.916;13.352;2023-02-28T03:31:48;2.40;99.90
19088;DHT22;9676;50.916;13.352;2023-02-28T03:34:41;2.40;99.90
19088;DHT22;9676;50.916;13.352;2023-02-28T03:37:37;2.40;99.90
19088;DHT22;9676;50.916;13.352;2023-02-28T03:40:32;2.40;99.90
19088;DHT22;9676;50.916;13.352;2023-02-28T03:43:29;2.30;99.90
19088;DHT22;9676;50.916;13.352;2023-02-28T03:46:25;2.30;99.90
19088;DHT22;9676;50.916;13.352;2023-02-28T03:49:18;2.30;99.90
19088;DHT22;9676;50.916;13.352;2023-02-28T03:52:09;2.30;99.90
19088;DHT22;9676;50.916;13.352;2023-02-28T03:55:02;2.30;99.90
19088;DHT22;9676;50.916;13.352;2023-02-28T03:57:59;2.30;99.90
19088;DHT22;9676;50.916;13.352;2023-02-28T04:00:56;2.30;99.90
19088;DHT22;9676;50.916;13.352;2023-02-28T04:03:55;2.30;99.90
19088;DHT22;9676;50.916;13.352;2023-02-28T04:06:45;2.20;99.90
19088;DHT22;9676;50.916;13.352;2023-02-28T04:09:34;2.20;99.90
19088;DHT22;9676;50.916;13.352;2023-02-28T04:12:24;2.20;99.90
19088;DHT22;9676;50.916;13.352;2023-02-28T04:15:13;2.20;99.90
19088;DHT22;9676;50.916;13.352;2023-02-28T04:18:04;2.20;99.90
19088;DHT22;9676;50.916;13.352;2023-02-28T04:20:54;2.20;99.90
19088;DHT22;9676;50.916;13.352;2023-02-28T04:23:44;2.10;99.90
19088;DHT22;9676;50.916;13.352;2023-02-28T04:26:35;2.10;99.90
19088;DHT22;9676;50.916;13.352;2023-02-28T04:29:27;2.10;99.90
19088;DHT22;9676;50.916;13.352;2023-02-28T04:32:17;2.00;99.90
19088;DHT22;9676;50.916;13.352;2023-02-28T04:35:08;2.00;99.90
19088;DHT22;9676;50.916;13.352;2023-02-28T04:37:59;1.90;99.90
19088;DHT22;9676;50.916;13.352;2023-02-28T04:40:48;1.90;99.90
19088;DHT22;9676;50.916;13.352;2023-02-28T04:43:37;1.90;99.90
19088;DHT22;9676;50.916;13.352;2023-02-28T04:46:27;1.90;99.90
19088;DHT22;9676;50.916;13.352;2023-02-28T04:49:16;1.90;99.90
19088;DHT22;9676;50.916;13.352;2023-02-28T04:52:07;1.90;99.90
19088;DHT22;9676;50.916;13.352;2023-02-28T04:54:58;1.90;99.90
19088;DHT22;9676;50.916;13.352;2023-02-28T04:57:47;1.90;99.90
19088;DHT22;9676;50.916;13.352;2023-02-28T05:00:37;1.80;99.90
19088;DHT22;9676;50.916;13.352;2023-02-28T05:03:26;1.90;99.90
19088;DHT22;9676;50.916;13.352;2023-02-28T05:06:16;1.80;99.90
19088;DHT22;9676;50.916;13.352;2023-02-28T05:09:07;1.90;99.90
19088;DHT22;9676;50.916;13.352;2023-02-28T05:11:59;1.90;99.90
19088;DHT22;9676;50.916;13.352;2023-02-28T05:14:49;1.90;99.90
19088;DHT22;9676;50.916;13.352;2023-02-28T05:17:38;1.80;99.90
19088;DHT22;9676;50.916;13.352;2023-02-28T05:20:28;1.80;99.90
19088;DHT22;9676;50.916;13.352;2023-02-28T05:23:18;1.80;99.90
19088;DHT22;9676;50.916;13.352;2023-02-28T05:26:10;1.70;99.90
19088;DHT22;9676;50.916;13.352;2023-02-28T05:28:59;1.70;99.90
19088;DHT22;9676;50.916;13.352;2023-02-28T05:31:49;1.70;99.90
19088;DHT22;9676;50.916;13.352;2023-02-28T05:34:39;1.60;99.90
19088;DHT22;9676;50.916;13.352;2023-02-28T05:37:28;1.60;99.90
19088;DHT22;9676;50.916;13.352;2023-02-28T05:40:18;1.50;99.90
19088;DHT22;9676;50.916;13.352;2023-02-28T05:43:11;1.40;99.90
19088;DHT22;9676;50.916;13.352;2023-02-28T05:46:02;1.30;99.90
19088;DHT22;9676;50.916;13.352;2023-02-28T05:48:53;1.30;99.90
19088;DHT22;9676;50.916;13.352;2023-02-28T05:51:43;1.20;99.80
19088;DHT22;9676;50.916;13.352;2023-02-28T05:54:33;1.20;99.80
19088;DHT22;9676;50.916;13.352;2023-02-28T05:57:23;1.10;99.90
19088;DHT22;9676;50.916;13.352;2023-02-28T06:00:14;1.00;99.90
19088;DHT22;9676;50.916;13.352;2023-02-28T06:03:05;0.90;99.90
19088;DHT22;9676;50.916;13.352;2023-02-28T06:05:55;0.90;99.90
19088;DHT22;9676;50.916;13.352;2023-02-28T06:08:44;0.90;99.90
19088;DHT22;9676;50.916;13.352;2023-02-28T06:11:34;0.80;99.90
19088;DHT22;9676;50.916;13.352;2023-02-28T06:14:23;0.80;99.90
19088;DHT22;9676;50.916;13.352;2023-02-28T06:17:14;0.70;99.90
19088;DHT22;9676;50.916;13.352;2023-02-28T06:20:04;0.70;99.90
19088;DHT22;9676;50.916;13.352;2023-02-28T06:22:55;0.70;99.90
19088;DHT22;9676;50.916;13.352;2023-02-28T06:25:46;0.70;99.90
19088;DHT22;9676;50.916;13.352;2023-02-28T06:28:37;0.80;99.90
19088;DHT22;9676;50.916;13.352;2023-02-28T06:31:27;0.90;99.90
19088;DHT22;9676;50.916;13.352;2023-02-28T06:34:18;1.20;99.90
19088;DHT22;9676;50.916;13.352;2023-02-28T06:37:08;1.50;99.90
19088;DHT22;9676;50.916;13.352;2023-02-28T06:39:57;1.90;99.90
19088;DHT22;9676;50.916;13.352;2023-02-28T06:42:47;2.30;99.90
19088;DHT22;9676;50.916;13.352;2023-02-28T06:45:36;2.70;99.90
19088;DHT22;9676;50.916;13.352;2023-02-28T06:48:26;3.20;99.90
19088;DHT22;9676;50.916;13.352;2023-02-28T06:51:19;3.60;99.90
19088;DHT22;9676;50.916;13.352;2023-02-28T06:54:10;4.20;99.90
19088;DHT22;9676;50.916;13.352;2023-02-28T06:57:00;4.70;99.90
19088;DHT22;9676;50.916;13.352;2023-02-28T06:59:49;5.20;99.90
19088;DHT22;9676;50.916;13.352;2023-02-28T07:02:38;5.70;99.90
19088;DHT22;9676;50.916;13.352;2023-02-28T07:05:28;6.20;99.90
19088;DHT22;9676;50.916;13.352;2023-02-28T07:08:18;6.80;99.90
19088;DHT22;9676;50.916;13.352;2023-02-28T07:11:08;7.20;99.90
19088;DHT22;9676;50.916;13.352;2023-02-28T07:13:57;7.70;99.90
19088;DHT22;9676;50.916;13.352;2023-02-28T07:16:47;8.00;99.90
19088;DHT22;9676;50.916;13.352;2023-02-28T07:19:38;8.30;99.90
19088;DHT22;9676;50.916;13.352;2023-02-28T07:22:27;8.50;99.90
19088;DHT22;9676;50.916;13.352;2023-02-28T07:25:18;8.80;99.90
19088;DHT22;9676;50.916;13.352;2023-02-28T07:28:08;9.00;99.90
19088;DHT22;9676;50.916;13.352;2023-02-28T07:31:02;9.30;99.90
19088;DHT22;9676;50.916;13.352;2023-02-28T07:33:52;9.60;99.90
19088;DHT22;9676;50.916;13.352;2023-02-28T07:36:41;9.80;99.90
19088;DHT22;9676;50.916;13.352;2023-02-28T07:39:31;10.10;99.90
19088;DHT22;9676;50.916;13.352;2023-02-28T07:42:21;10.40;99.90
19088;DHT22;9676;50.916;13.352;2023-02-28T07:45:11;10.60;99.90
19088;DHT22;9676;50.916;13.352;2023-02-28T07:48:01;10.80;99.90
19088;DHT22;9676;50.916;13.352;2023-02-28T07:50:54;11.10;99.90
19088;DHT22;9676;50.916;13.352;2023-02-28T07:53:44;11.50;99.90
19088;DHT22;9676;50.916;13.352;2023-02-28T07:56:33;11.90;99.90
19088;DHT22;9676;50.916;13.352;2023-02-28T07:59:24;12.30;99.90
19088;DHT22;9676;50.916;13.352;2023-02-28T08:02:15;12.80;99.90
19088;DHT22;9676;50.916;13.352;2023-02-28T08:05:06;13.30;99.90
19088;DHT22;9676;50.916;13.352;2023-02-28T08:07:56;13.60;99.90
19088;DHT22;9676;50.916;13.352;2023-02-28T08:10:45;13.70;99.90
19088;DHT22;9676;50.916;13.352;2023-02-28T08:13:35;13.60;99.90
19088;DHT22;9676;50.916;13.352;2023-02-28T08:16:25;13.40;99.40
19088;DHT22;9676;50.916;13.352;2023-02-28T08:19:15;13.10;95.80
19088;DHT22;9676;50.916;13.352;2023-02-28T08:22:04;12.70;95.70
19088;DHT22;9676;50.916;13.352;2023-02-28T08:24:54;12.30;95.00
19088;DHT22;9676;50.916;13.352;2023-02-28T08:27:43;11.90;95.90
19088;DHT22;9676;50.916;13.352;2023-02-28T08:30:33;11.60;99.80
19088;DHT22;9676;50.916;13.352;2023-02-28T08:33:25;11.60;99.90
19088;DHT22;9676;50.916;13.352;2023-02-28T08:36:16;11.60;99.90
19088;DHT22;9676;50.916;13.352;2023-02-28T08:39:06;11.90;99.90
19088;DHT22;9676;50.916;13.352;2023-02-28T08:41:55;12.30;99.90
19088;DHT22;9676;50.916;13.352;2023-02-28T08:44:54;12.70;99.90
19088;DHT22;9676;50.916;13.352;2023-02-28T08:47:44;13.30;99.90
19088;DHT22;9676;50.916;13.352;2023-02-28T08:50:34;13.80;99.90
19088;DHT22;9676;50.916;13.352;2023-02-28T08:53:24;14.30;99.90
19088;DHT22;9676;50.916;13.352;2023-02-28T08:56:15;14.50;99.90
19088;DHT22;9676;50.916;13.352;2023-02-28T08:59:08;14.80;99.90
19088;DHT22;9676;50.916;13.352;2023-02-28T09:01:57;15.00;99.90
19088;DHT22;9676;50.916;13.352;2023-02-28T09:04:47;15.20;99.90
19088;DHT22;9676;50.916;13.352;2023-02-28T09:07:40;15.30;99.90
19088;DHT22;9676;50.916;13.352;2023-02-28T09:10:30;15.30;97.50
19088;DHT22;9676;50.916;13.352;2023-02-28T09:13:20;15.30;98.90
19088;DHT22;9676;50.916;13.352;2023-02-28T09:16:11;15.30;98.30
19088;DHT22;9676;50.916;13.352;2023-02-28T09:19:02;15.20;95.60
19088;DHT22;9676;50.916;13.352;2023-02-28T09:21:52;15.30;96.80
19088;DHT22;9676;50.916;13.352;2023-02-28T09:24:42;15.30;96.90
19088;DHT22;9676;50.916;13.352;2023-02-28T09:27:32;15.30;96.00
19088;DHT22;9676;50.916;13.352;2023-02-28T09:30:22;15.40;96.90
19088;DHT22;9676;50.916;13.352;2023-02-28T09:33:12;15.40;96.70
19088;DHT22;9676;50.916;13.352;2023-02-28T09:36:02;15.40;95.70
19088;DHT22;9676;50.916;13.352;2023-02-28T09:38:52;15.50;93.70
19088;DHT22;9676;50.916;13.352;2023-02-28T09:41:46;15.50;94.20
19088;DHT22;9676;50.916;13.352;2023-02-28T09:44:41;15.60;91.80
19088;DHT22;9676;50.916;13.352;2023-02-28T09:47:35;15.70;93.50
19088;DHT22;9676;50.916;13.352;2023-02-28T09:50:31;15.80;92.50
19088;DHT22;9676;50.916;13.352;2023-02-28T09:53:27;15.90;91.90
19088;DHT22;9676;50.916;13.352;2023-02-28T09:56:24;16.10;93.30
19088;DHT22;9676;50.916;13.352;2023-02-28T09:59:25;16.20;90.90
19088;DHT22;9676;50.916;13.352;2023-02-28T10:02:41;16.20;88.60
19088;DHT22;9676;50.916;13.352;2023-02-28T10:05:41;16.20;85.90
19088;DHT22;9676;50.916;13.352;2023-02-28T10:08:36;16.20;87.90
19088;DHT22;9676;50.916;13.352;2023-02-28T10:11:33;16.20;87.50
19088;DHT22;9676;50.916;13.352;2023-02-28T10:14:26;16.30;85.80
19088;DHT22;9676;50.916;13.352;2023-02-28T10:17:21;16.30;86.10
19088;DHT22;9676;50.916;13.352;2023-02-28T10:20:13;16.40;86.40
19088;DHT22;9676;50.916;13.352;2023-02-28T10:23:13;16.60;87.60
19088;DHT22;9676;50.916;13.352;2023-02-28T10:26:12;16.80;83.20
19088;DHT22;9676;50.916;13.352;2023-02-28T10:29:03;17.00;85.40
19088;DHT22;9676;50.916;13.352;2023-02-28T10:31:54;17.20;85.60
19088;DHT22;9676;50.916;13.352;2023-02-28T10:34:44;17.30;81.80
19088;DHT22;9676;50.916;13.352;2023-02-28T10:37:33;17.30;79.30
19088;DHT22;9676;50.916;13.352;2023-02-28T10:40:30;17.20;77.90
19088;DHT22;9676;50.916;13.352;2023-02-28T10:43:23;17.10;75.50
19088;DHT22;9676;50.916;13.352;2023-02-28T10:46:15;17.00;76.60
19088;DHT22;9676;50.916;13.352;2023-02-28T10:49:19;16.90;70.20
19088;DHT22;9676;50.916;13.352;2023-02-28T10:52:10;16.70;69.30
19088;DHT22;9676;50.916;13.352;2023-02-28T10:55:15;16.50;67.90
19088;DHT22;9676;50.916;13.352;2023-02-28T10:58:21;16.30;66.60
19088;DHT22;9676;50.916;13.352;2023-02-28T11:01:14;16.20;68.90
19088;DHT22;9676;50.916;13.352;2023-02-28T11:04:18;16.20;72.10
19088;DHT22;9676;50.916;13.352;2023-02-28T11:07:18;16.20;69.90
19088;DHT22;9676;50.916;13.352;2023-02-28T11:10:20;16.20;68.10
19088;DHT22;9676;50.916;13.352;2023-02-28T11:13:17;16.30;69.80
19088;DHT22;9676;50.916;13.352;2023-02-28T11:16:10;16.30;69.10
19088;DHT22;9676;50.916;13.352;2023-02-28T11:19:02;16.30;68.60
19088;DHT22;9676;50.916;13.352;2023-02-28T11:21:56;16.20;67.10
19088;DHT22;9676;50.916;13.352;2023-02-28T11:24:50;16.10;66.60
19088;DHT22;9676;50.916;13.352;2023-02-28T11:27:46;15.90;66.20
19088;DHT22;9676;50.916;13.352;2023-02-28T11:30:38;15.80;64.70
19088;DHT22;9676;50.916;13.352;2023-02-28T11:33:30;15.60;65.20
19088;DHT22;9676;50.916;13.352;2023-02-28T11:36:22;15.40;64.30
19088;DHT22;9676;50.916;13.352;2023-02-28T11:39:16;15.20;64.00
19088;DHT22;9676;50.916;13.352;2023-02-28T11:42:20;15.10;63.00
19088;DHT22;9676;50.916;13.352;2023-02-28T11:45:39;14.90;62.30
19088;DHT22;9676;50.916;13.352;2023-02-28T11:48:40;14.60;61.90
19088;DHT22;9676;50.916;13.352;2023-02-28T11:51:47;14.30;60.90
19088;DHT22;9676;50.916;13.352;2023-02-28T11:55:04;13.90;58.20
19088;DHT22;9676;50.916;13.352;2023-02-28T11:58:11;13.50;57.10
19088;DHT22;9676;50.916;13.352;2023-02-28T12:01:23;12.90;54.80
19088;DHT22;9676;50.916;13.352;2023-02-28T12:04:26;12.30;53.90
19088;DHT22;9676;50.916;13.352;2023-02-28T12:07:31;11.70;53.90
19088;DHT22;9676;50.916;13.352;2023-02-28T12:10:28;11.10;53.90
19088;DHT22;9676;50.916;13.352;2023-02-28T12:13:22;10.60;53.60
19088;DHT22;9676;50.916;13.352;2023-02-28T12:19:45;9.70;54.90
19088;DHT22;9676;50.916;13.352;2023-02-28T12:22:41;9.30;55.50
19088;DHT22;9676;50.916;13.352;2023-02-28T12:25:46;9.10;55.60
19088;DHT22;9676;50.916;13.352;2023-02-28T12:28:44;8.90;56.00
19088;DHT22;9676;50.916;13.352;2023-02-28T12:31:37;8.70;56.30
19088;DHT22;9676;50.916;13.352;2023-02-28T12:34:33;8.60;56.40
19088;DHT22;9676;50.916;13.352;2023-02-28T12:37:29;8.50;56.40
19088;DHT22;9676;50.916;13.352;2023-02-28T12:40:23;8.30;56.60
19088;DHT22;9676;50.916;13.352;2023-02-28T12:43:17;8.20;56.90
19088;DHT22;9676;50.916;13.352;2023-02-28T12:46:10;8.10;57.00
19088;DHT22;9676;50.916;13.352;2023-02-28T12:49:08;8.00;57.30
19088;DHT22;9676;50.916;13.352;2023-02-28T12:52:00;8.00;57.10
19088;DHT22;9676;50.916;13.352;2023-02-28T12:54:54;7.90;57.20
19088;DHT22;9676;50.916;13.352;2023-02-28T12:57:50;7.80;57.50
19088;DHT22;9676;50.916;13.352;2023-02-28T13:00:55;7.70;57.50
19088;DHT22;9676;50.916;13.352;2023-02-28T13:04:38;7.70;57.50
19088;DHT22;9676;50.916;13.352;2023-02-28T13:07:47;7.60;57.70
19088;DHT22;9676;50.916;13.352;2023-02-28T13:10:53;7.60;57.90
19088;DHT22;9676;50.916;13.352;2023-02-28T13:13:45;7.50;58.20
19088;DHT22;9676;50.916;13.352;2023-02-28T13:16:56;7.50;57.90
19088;DHT22;9676;50.916;13.352;2023-02-28T13:19:57;7.50;57.80
19088;DHT22;9676;50.916;13.352;2023-02-28T13:22:48;7.40;57.90
19088;DHT22;9676;50.916;13.352;2023-02-28T13:25:51;7.30;58.00
19088;DHT22;9676;50.916;13.352;2023-02-28T13:32:36;7.20;57.90
19088;DHT22;9676;50.916;13.352;2023-02-28T13:35:38;7.10;57.80
19088;DHT22;9676;50.916;13.352;2023-02-28T13:38:35;7.00;58.00
19088;DHT22;9676;50.916;13.352;2023-02-28T13:41:45;6.90;58.30
19088;DHT22;9676;50.916;13.352;2023-02-28T13:48:18;6.90;58.50
19088;DHT22;9676;50.916;13.352;2023-02-28T13:51:38;6.90;58.90
19088;DHT22;9676;50.916;13.352;2023-02-28T13:54:39;7.00;58.80
19088;DHT22;9676;50.916;13.352;2023-02-28T13:57:44;6.90;58.90
19088;DHT22;9676;50.916;13.352;2023-02-28T14:01:02;6.90;59.00
19088;DHT22;9676;50.916;13.352;2023-02-28T14:04:40;6.90;59.00
19088;DHT22;9676;50.916;13.352;2023-02-28T14:07:45;7.00;59.00
19088;DHT22;9676;50.916;13.352;2023-02-28T14:10:41;7.00;59.20
19088;DHT22;9676;50.916;13.352;2023-02-28T14:13:41;7.00;59.20
19088;DHT22;9676;50.916;13.352;2023-02-28T14:16:41;7.00;59.20
19088;DHT22;9676;50.916;13.352;2023-02-28T14:19:35;7.00;59.20
19088;DHT22;9676;50.916;13.352;2023-02-28T14:22:43;7.00;59.20
19088;DHT22;9676;50.916;13.352;2023-02-28T14:25:47;6.90;58.90
19088;DHT22;9676;50.916;13.352;2023-02-28T14:28:50;6.90;58.90
19088;DHT22;9676;50.916;13.352;2023-02-28T14:31:54;6.90;58.90
19088;DHT22;9676;50.916;13.352;2023-02-28T14:34:54;6.80;58.80
19088;DHT22;9676;50.916;13.352;2023-02-28T14:37:52;6.80;58.70
19088;DHT22;9676;50.916;13.352;2023-02-28T14:40:42;6.80;58.80
19088;DHT22;9676;50.916;13.352;2023-02-28T14:43:32;6.70;58.90
19088;DHT22;9676;50.916;13.352;2023-02-28T14:46:23;6.70;58.90
19088;DHT22;9676;50.916;13.352;2023-02-28T14:49:19;6.60;59.00
19088;DHT22;9676;50.916;13.352;2023-02-28T14:52:16;6.60;59.10
19088;DHT22;9676;50.916;13.352;2023-02-28T14:55:14;6.60;59.20
19088;DHT22;9676;50.916;13.352;2023-02-28T14:58:05;6.50;59.30
19088;DHT22;9676;50.916;13.352;2023-02-28T15:00:57;6.50;59.50
19088;DHT22;9676;50.916;13.352;2023-02-28T15:03:48;6.50;59.60
19088;DHT22;9676;50.916;13.352;2023-02-28T15:06:46;6.50;59.60
19088;DHT22;9676;50.916;13.352;2023-02-28T15:09:37;6.50;59.50
19088;DHT22;9676;50.916;13.352;2023-02-28T15:12:26;6.50;59.40
19088;DHT22;9676;50.916;13.352;2023-02-28T15:15:17;6.50;59.50
19088;DHT22;9676;50.916;13.352;2023-02-28T15:18:27;6.40;59.40
19088;DHT22;9676;50.916;13.352;2023-02-28T15:21:21;6.40;59.20
19088;DHT22;9676;50.916;13.352;2023-02-28T15:24:18;6.40;59.30
19088;DHT22;9676;50.916;13.352;2023-02-28T15:27:15;6.40;59.30
19088;DHT22;9676;50.916;13.352;2023-02-28T15:30:16;6.30;59.20
19088;DHT22;9676;50.916;13.352;2023-02-28T15:33:18;6.30;59.20
19088;DHT22;9676;50.916;13.352;2023-02-28T15:36:14;6.30;59.10
19088;DHT22;9676;50.916;13.352;2023-02-28T15:39:19;6.20;59.00
19088;DHT22;9676;50.916;13.352;2023-02-28T15:42:10;6.20;59.00
19088;DHT22;9676;50.916;13.352;2023-02-28T15:45:02;6.10;59.00
19088;DHT22;9676;50.916;13.352;2023-02-28T15:47:52;6.00;59.00
19088;DHT22;9676;50.916;13.352;2023-02-28T15:50:43;6.00;59.00
19088;DHT22;9676;50.916;13.352;2023-02-28T15:53:34;5.90;58.90
19088;DHT22;9676;50.916;13.352;2023-02-28T15:56:26;5.90;59.00
19088;DHT22;9676;50.916;13.352;2023-02-28T15:59:21;5.80;58.90
19088;DHT22;9676;50.916;13.352;2023-02-28T16:02:15;5.70;59.50
19088;DHT22;9676;50.916;13.352;2023-02-28T16:05:23;5.70;58.90
19088;DHT22;9676;50.916;13.352;2023-02-28T16:08:18;5.60;58.80
19088;DHT22;9676;50.916;13.352;2023-02-28T16:11:08;5.60;58.90
19088;DHT22;9676;50.916;13.352;2023-02-28T16:13:58;5.50;58.80
19088;DHT22;9676;50.916;13.352;2023-02-28T16:16:53;5.50;58.80
19088;DHT22;9676;50.916;13.352;2023-02-28T16:19:44;5.40;58.80
19088;DHT22;9676;50.916;13.352;2023-02-28T16:22:33;5.30;58.80
19088;DHT22;9676;50.916;13.352;2023-02-28T16:25:28;5.30;58.90
19088;DHT22;9676;50.916;13.352;2023-02-28T16:28:26;5.20;58.90
19088;DHT22;9676;50.916;13.352;2023-02-28T16:31:18;5.20;59.00
19088;DHT22;9676;50.916;13.352;2023-02-28T16:34:10;5.10;58.90
19088;DHT22;9676;50.916;13.352;2023-02-28T16:36:59;5.10;58.90
19088;DHT22;9676;50.916;13.352;2023-02-28T16:39:48;5.00;58.90
19088;DHT22;9676;50.916;13.352;2023-02-28T16:42:39;5.00;59.00
19088;DHT22;9676;50.916;13.352;2023-02-28T16:45:29;4.90;59.00
19088;DHT22;9676;50.916;13.352;2023-02-28T16:48:19;4.90;59.10
19088;DHT22;9676;50.916;13.352;2023-02-28T16:51:11;4.80;59.00
19088;DHT22;9676;50.916;13.352;2023-02-28T16:54:01;4.80;59.10
19088;DHT22;9676;50.916;13.352;2023-02-28T16:56:51;4.70;59.20
19088;DHT22;9676;50.916;13.352;2023-02-28T16:59:41;4.70;59.20
19088;DHT22;9676;50.916;13.352;2023-02-28T17:02:30;4.60;59.20
19088;DHT22;9676;50.916;13.352;2023-02-28T17:05:20;4.50;59.70
19088;DHT22;9676;50.916;13.352;2023-02-28T17:08:11;4.50;59.20
19088;DHT22;9676;50.916;13.352;2023-02-28T17:11:01;4.50;59.20
19088;DHT22;9676;50.916;13.352;2023-02-28T17:13:50;4.40;59.20
19088;DHT22;9676;50.916;13.352;2023-02-28T17:16:42;4.30;59.20
19088;DHT22;9676;50.916;13.352;2023-02-28T17:19:31;4.30;59.20
19088;DHT22;9676;50.916;13.352;2023-02-28T17:22:21;4.30;59.20
19088;DHT22;9676;50.916;13.352;2023-02-28T17:25:12;4.20;59.10
19088;DHT22;9676;50.916;13.352;2023-02-28T17:28:01;4.20;59.10
19088;DHT22;9676;50.916;13.352;2023-02-28T17:30:51;4.10;59.00
19088;DHT22;9676;50.916;13.352;2023-02-28T17:33:40;4.10;59.10
19088;DHT22;9676;50.916;13.352;2023-02-28T17:36:30;4.00;59.00
19088;DHT22;9676;50.916;13.352;2023-02-28T17:39:21;4.00;59.10
19088;DHT22;9676;50.916;13.352;2023-02-28T17:42:13;3.90;59.00
19088;DHT22;9676;50.916;13.352;2023-02-28T17:45:03;3.80;59.10
19088;DHT22;9676;50.916;13.352;2023-02-28T17:47:52;3.80;59.20
19088;DHT22;9676;50.916;13.352;2023-02-28T17:50:42;3.80;59.20
19088;DHT22;9676;50.916;13.352;2023-02-28T17:53:31;3.70;59.20
19088;DHT22;9676;50.916;13.352;2023-02-28T17:56:22;3.70;59.30
19088;DHT22;9676;50.916;13.352;2023-02-28T17:59:13;3.70;59.50
19088;DHT22;9676;50.916;13.352;2023-02-28T18:02:03;3.60;59.50
19088;DHT22;9676;50.916;13.352;2023-02-28T18:04:52;3.60;59.50
19088;DHT22;9676;50.916;13.352;2023-02-28T18:07:42;3.60;59.50
19088;DHT22;9676;50.916;13.352;2023-02-28T18:10:31;3.60;59.50
19088;DHT22;9676;50.916;13.352;2023-02-28T18:13:21;3.60;59.50
19088;DHT22;9676;50.916;13.352;2023-02-28T18:16:12;3.50;59.40
19088;DHT22;9676;50.916;13.352;2023-02-28T18:19:01;3.50;59.40
19088;DHT22;9676;50.916;13.352;2023-02-28T18:21:52;3.50;59.50
19088;DHT22;9676;50.916;13.352;2023-02-28T18:24:42;3.50;59.50
19088;DHT22;9676;50.916;13.352;2023-02-28T18:27:31;3.50;59.50
19088;DHT22;9676;50.916;13.352;2023-02-28T18:30:21;3.40;59.50
19088;DHT22;9676;50.916;13.352;2023-02-28T18:33:12;3.40;59.60
19088;DHT22;9676;50.916;13.352;2023-02-28T18:36:01;3.30;59.60
19088;DHT22;9676;50.916;13.352;2023-02-28T18:38:51;3.30;59.60
19088;DHT22;9676;50.916;13.352;2023-02-28T18:41:40;3.30;59.70
19088;DHT22;9676;50.916;13.352;2023-02-28T18:44:30;3.30;59.70
19088;DHT22;9676;50.916;13.352;2023-02-28T18:47:19;3.20;59.70
19088;DHT22;9676;50.916;13.352;2023-02-28T18:50:11;3.20;59.80